sensor_id;sensor_type;location;lat;lon;timestamp;pressure;altitude;pressure_sealevel;temperature;humidity
19526;BME280;9907;42.676;26.348;2024-01-15T00:01:21;98480.72;;;-1.40;68.81
19526;BME280;9907;42.676;26.348;2024-01-15T00:03:48;98485.34;;;-1.45;68.57
19526;BME280;9907;42.676;26.348;2024-01-15T00:06:17;98480.41;;;-1.52;69.25
19526;BME280;9907;42.676;26.348;2024-01-15T00:08:43;98481.53;;;-1.40;68.99
19526;BME280;9907;42.676;26.348;2024-01-15T00:11:12;98484.84;;;-1.36;68.51
19526;BME280;9907;42.676;26.348;2024-01-15T00:14:09;98484.25;;;-1.41;68.83
19526;BME280;9907;42.676;26.348;2024-01-15T00:17:05;98488.72;;;-1.43;69.05
19526;BME280;9907;42.676;26.348;2024-01-15T00:19:31;98475.53;;;-1.42;69.02
19526;BME280;9907;42.676;26.348;2024-01-15T00:22:07;98477.25;;;-1.41;69.12
19526;BME280;9907;42.676;26.348;2024-01-15T00:24:39;98479.78;;;-1.39;69.00
19526;BME280;9907;42.676;26.348;2024-01-15T00:27:15;98483.19;;;-1.37;69.17
19526;BME280;9907;42.676;26.348;2024-01-15T00:29:50;98481.63;;;-1.41;69.06
19526;BME280;9907;42.676;26.348;2024-01-15T00:32:23;98487.78;;;-1.42;69.11
19526;BME280;9907;42.676;26.348;2024-01-15T00:35:30;98487.31;;;-1.51;69.42
19526;BME280;9907;42.676;26.348;2024-01-15T00:38:27;98484.00;;;-1.54;70.06
19526;BME280;9907;42.676;26.348;2024-01-15T00:40:55;98484.69;;;-1.51;69.74
19526;BME280;9907;42.676;26.348;2024-01-15T00:43:33;98486.63;;;-1.54;69.85
19526;BME280;9907;42.676;26.348;2024-01-15T00:46:03;98484.91;;;-1.55;70.47
19526;BME280;9907;42.676;26.348;2024-01-15T00:48:42;98482.19;;;-1.52;70.02
19526;BME280;9907;42.676;26.348;2024-01-15T00:51:14;98474.84;;;-1.63;71.38
19526;BME280;9907;42.676;26.348;2024-01-15T00:53:47;98476.16;;;-1.71;71.83
19526;BME280;9907;42.676;26.348;2024-01-15T00:56:20;98476.22;;;-1.73;72.01
19526;BME280;9907;42.676;26.348;2024-01-15T00:58:50;98470.13;;;-1.73;71.71
19526;BME280;9907;42.676;26.348;2024-01-15T01:01:42;98465.91;;;-1.76;71.12
19526;BME280;9907;42.676;26.348;2024-01-15T01:04:30;98467.59;;;-1.75;71.08
19526;BME280;9907;42.676;26.348;2024-01-15T01:06:58;98466.75;;;-1.75;71.00
19526;BME280;9907;42.676;26.348;2024-01-15T01:09:29;98469.38;;;-1.75;71.59
19526;BME280;9907;42.676;26.348;2024-01-15T01:12:17;98469.38;;;-1.75;71.25
19526;BME280;9907;42.676;26.348;2024-01-15T01:14:46;98472.75;;;-1.73;71.60
19526;BME280;9907;42.676;26.348;2024-01-15T01:17:27;98466.91;;;-1.78;72.34
19526;BME280;9907;42.676;26.348;2024-01-15T01:20:01;98472.91;;;-1.76;72.10
19526;BME280;9907;42.676;26.348;2024-01-15T01:22:36;98471.19;;;-1.77;71.68
19526;BME280;9907;42.676;26.348;2024-01-15T01:25:05;98482.59;;;-1.78;72.05
19526;BME280;9907;42.676;26.348;2024-01-15T01:27:30;98481.66;;;-1.77;71.68
19526;BME280;9907;42.676;26.348;2024-01-15T01:29:59;98475.81;;;-1.82;72.53
19526;BME280;9907;42.676;26.348;2024-01-15T01:32:42;98480.38;;;-1.86;72.08
19526;BME280;9907;42.676;26.348;2024-01-15T01:35:09;98485.16;;;-1.96;73.21
19526;BME280;9907;42.676;26.348;2024-01-15T01:37:35;98479.13;;;-1.96;72.83
19526;BME280;9907;42.676;26.348;2024-01-15T01:40:00;98479.94;;;-1.96;72.92
19526;BME280;9907;42.676;26.348;2024-01-15T01:42:27;98474.34;;;-1.88;72.44
19526;BME280;9907;42.676;26.348;2024-01-15T01:44:55;98474.28;;;-1.86;72.33
19526;BME280;9907;42.676;26.348;2024-01-15T01:47:21;98471.50;;;-1.83;71.58
19526;BME280;9907;42.676;26.348;2024-01-15T01:49:46;98474.28;;;-1.86;71.67
19526;BME280;9907;42.676;26.348;2024-01-15T01:52:17;98480.78;;;-1.95;72.77
19526;BME280;9907;42.676;26.348;2024-01-15T01:54:55;98478.25;;;-1.97;72.55
19526;BME280;9907;42.676;26.348;2024-01-15T01:57:58;98481.78;;;-1.98;72.13
19526;BME280;9907;42.676;26.348;2024-01-15T02:00:26;98479.34;;;-2.01;72.30
19526;BME280;9907;42.676;26.348;2024-01-15T02:02:58;98473.63;;;-1.91;71.72
19526;BME280;9907;42.676;26.348;2024-01-15T02:05:39;98468.97;;;-1.85;71.77
19526;BME280;9907;42.676;26.348;2024-01-15T02:08:35;98454.03;;;-1.83;71.65
19526;BME280;9907;42.676;26.348;2024-01-15T02:11:16;98454.94;;;-1.84;71.50
19526;BME280;9907;42.676;26.348;2024-01-15T02:13:55;98462.78;;;-1.84;71.53
19526;BME280;9907;42.676;26.348;2024-01-15T02:16:24;98462.56;;;-1.97;72.36
19526;BME280;9907;42.676;26.348;2024-01-15T02:19:15;98455.63;;;-1.98;72.02
19526;BME280;9907;42.676;26.348;2024-01-15T02:21:43;98454.72;;;-1.97;72.29
19526;BME280;9907;42.676;26.348;2024-01-15T02:24:11;98449.47;;;-1.97;72.66
19526;BME280;9907;42.676;26.348;2024-01-15T02:26:39;98450.06;;;-1.91;72.21
19526;BME280;9907;42.676;26.348;2024-01-15T02:29:10;98448.94;;;-1.86;72.03
19526;BME280;9907;42.676;26.348;2024-01-15T02:31:39;98451.41;;;-2.00;72.57
19526;BME280;9907;42.676;26.348;2024-01-15T02:34:46;98452.69;;;-2.09;73.54
19526;BME280;9907;42.676;26.348;2024-01-15T02:37:47;98444.19;;;-2.14;73.44
19526;BME280;9907;42.676;26.348;2024-01-15T02:40:15;98438.19;;;-2.16;73.47
19526;BME280;9907;42.676;26.348;2024-01-15T02:42:43;98442.75;;;-2.02;73.67
19526;BME280;9907;42.676;26.348;2024-01-15T02:45:29;98427.47;;;-1.92;72.64
19526;BME280;9907;42.676;26.348;2024-01-15T02:51:55;98424.47;;;-2.21;74.64
19526;BME280;9907;42.676;26.348;2024-01-15T02:54:21;98419.94;;;-2.17;74.52
19526;BME280;9907;42.676;26.348;2024-01-15T02:56:48;98404.50;;;-2.05;73.87
19526;BME280;9907;42.676;26.348;2024-01-15T02:59:14;98405.72;;;-1.94;73.31
19526;BME280;9907;42.676;26.348;2024-01-15T03:01:52;98396.34;;;-1.99;73.25
19526;BME280;9907;42.676;26.348;2024-01-15T03:04:45;98398.94;;;-2.16;73.96
19526;BME280;9907;42.676;26.348;2024-01-15T03:07:58;98395.63;;;-2.19;74.74
19526;BME280;9907;42.676;26.348;2024-01-15T03:10:38;98399.94;;;-2.18;74.75
19526;BME280;9907;42.676;26.348;2024-01-15T03:13:19;98403.72;;;-2.07;73.91
19526;BME280;9907;42.676;26.348;2024-01-15T03:15:46;98403.13;;;-1.94;73.89
19526;BME280;9907;42.676;26.348;2024-01-15T03:18:37;98403.53;;;-1.85;73.09
19526;BME280;9907;42.676;26.348;2024-01-15T03:21:06;98398.56;;;-1.91;73.28
19526;BME280;9907;42.676;26.348;2024-01-15T03:23:57;98393.66;;;-1.97;72.74
19526;BME280;9907;42.676;26.348;2024-01-15T03:26:50;98390.88;;;-1.94;72.78
19526;BME280;9907;42.676;26.348;2024-01-15T03:29:37;98392.50;;;-1.91;72.57
19526;BME280;9907;42.676;26.348;2024-01-15T03:32:31;98385.75;;;-2.14;73.52
19526;BME280;9907;42.676;26.348;2024-01-15T03:35:24;98386.63;;;-2.14;74.00
19526;BME280;9907;42.676;26.348;2024-01-15T03:38:35;98387.56;;;-1.98;73.15
19526;BME280;9907;42.676;26.348;2024-01-15T03:41:21;98389.72;;;-1.88;72.31
19526;BME280;9907;42.676;26.348;2024-01-15T03:44:08;98388.81;;;-1.87;72.40
19526;BME280;9907;42.676;26.348;2024-01-15T03:46:42;98381.88;;;-1.88;72.92
19526;BME280;9907;42.676;26.348;2024-01-15T03:49:46;98382.03;;;-1.91;72.84
19526;BME280;9907;42.676;26.348;2024-01-15T03:52:51;98376.19;;;-1.79;72.63
19526;BME280;9907;42.676;26.348;2024-01-15T03:55:42;98375.16;;;-1.77;72.07
19526;BME280;9907;42.676;26.348;2024-01-15T03:58:09;98375.72;;;-1.70;71.91
19526;BME280;9907;42.676;26.348;2024-01-15T04:00:38;98374.19;;;-1.74;71.93
19526;BME280;9907;42.676;26.348;2024-01-15T04:03:04;98381.19;;;-1.75;72.27
19526;BME280;9907;42.676;26.348;2024-01-15T04:05:30;98381.88;;;-1.71;72.25
19526;BME280;9907;42.676;26.348;2024-01-15T04:07:55;98397.13;;;-1.62;71.86
19526;BME280;9907;42.676;26.348;2024-01-15T04:10:20;98394.66;;;-1.82;73.11
19526;BME280;9907;42.676;26.348;2024-01-15T04:12:46;98399.13;;;-1.84;72.90
19526;BME280;9907;42.676;26.348;2024-01-15T04:15:12;98400.81;;;-1.83;73.09
19526;BME280;9907;42.676;26.348;2024-01-15T04:17:38;98397.34;;;-1.84;72.83
19526;BME280;9907;42.676;26.348;2024-01-15T04:20:04;98393.19;;;-1.88;72.87
19526;BME280;9907;42.676;26.348;2024-01-15T04:22:31;98405.72;;;-1.77;72.53
19526;BME280;9907;42.676;26.348;2024-01-15T04:24:57;98390.50;;;-1.69;72.21
19526;BME280;9907;42.676;26.348;2024-01-15T04:27:22;98396.50;;;-1.67;71.66
19526;BME280;9907;42.676;26.348;2024-01-15T04:29:48;98387.81;;;-1.85;73.15
19526;BME280;9907;42.676;26.348;2024-01-15T04:32:13;98392.22;;;-1.85;72.57
19526;BME280;9907;42.676;26.348;2024-01-15T04:34:38;98386.81;;;-1.82;72.49
19526;BME280;9907;42.676;26.348;2024-01-15T04:37:04;98383.88;;;-1.76;72.17
19526;BME280;9907;42.676;26.348;2024-01-15T04:39:29;98384.28;;;-1.67;71.81
19526;BME280;9907;42.676;26.348;2024-01-15T04:41:55;98378.94;;;-1.65;71.75
19526;BME280;9907;42.676;26.348;2024-01-15T04:44:20;98375.09;;;-1.58;71.76
19526;BME280;9907;42.676;26.348;2024-01-15T04:46:46;98386.56;;;-1.61;71.24
19526;BME280;9907;42.676;26.348;2024-01-15T04:49:12;98386.78;;;-1.65;71.42
19526;BME280;9907;42.676;26.348;2024-01-15T04:51:37;98379.44;;;-1.74;71.92
19526;BME280;9907;42.676;26.348;2024-01-15T04:54:14;98381.25;;;-1.76;71.63
19526;BME280;9907;42.676;26.348;2024-01-15T04:56:49;98379.56;;;-1.77;71.89
19526;BME280;9907;42.676;26.348;2024-01-15T04:59:58;98392.34;;;-1.88;72.64
19526;BME280;9907;42.676;26.348;2024-01-15T05:02:32;98397.66;;;-2.07;73.14
19526;BME280;9907;42.676;26.348;2024-01-15T05:05:06;98390.94;;;-2.13;73.69
19526;BME280;9907;42.676;26.348;2024-01-15T05:07:32;98397.03;;;-2.48;74.77
19526;BME280;9907;42.676;26.348;2024-01-15T05:09:58;98394.34;;;-2.65;75.64
19526;BME280;9907;42.676;26.348;2024-01-15T05:12:24;98385.88;;;-2.70;76.27
19526;BME280;9907;42.676;26.348;2024-01-15T05:14:50;98385.59;;;-2.64;76.26
19526;BME280;9907;42.676;26.348;2024-01-15T05:17:15;98386.84;;;-2.54;76.31
19526;BME280;9907;42.676;26.348;2024-01-15T05:19:41;98393.63;;;-2.69;76.08
19526;BME280;9907;42.676;26.348;2024-01-15T05:22:13;98399.72;;;-2.87;77.51
19526;BME280;9907;42.676;26.348;2024-01-15T05:24:40;98398.50;;;-2.99;78.98
19526;BME280;9907;42.676;26.348;2024-01-15T05:27:09;98395.63;;;-2.92;79.15
19526;BME280;9907;42.676;26.348;2024-01-15T05:29:50;98390.66;;;-2.80;78.23
19526;BME280;9907;42.676;26.348;2024-01-15T05:32:41;98396.47;;;-2.73;77.73
19526;BME280;9907;42.676;26.348;2024-01-15T05:35:50;98392.78;;;-2.69;77.58
19526;BME280;9907;42.676;26.348;2024-01-15T05:38:58;98390.41;;;-2.55;77.12
19526;BME280;9907;42.676;26.348;2024-01-15T05:41:24;98383.31;;;-2.53;76.95
19526;BME280;9907;42.676;26.348;2024-01-15T05:43:49;98386.34;;;-2.62;77.45
19526;BME280;9907;42.676;26.348;2024-01-15T05:46:16;98386.22;;;-2.59;77.65
19526;BME280;9907;42.676;26.348;2024-01-15T05:48:41;98377.03;;;-2.49;76.98
19526;BME280;9907;42.676;26.348;2024-01-15T05:51:08;98382.97;;;-2.28;77.05
19526;BME280;9907;42.676;26.348;2024-01-15T05:53:48;98376.19;;;-2.32;76.58
19526;BME280;9907;42.676;26.348;2024-01-15T06:03:43;98369.03;;;-2.29;77.22
19526;BME280;9907;42.676;26.348;2024-01-15T06:13:25;98374.53;;;-2.16;79.03
19526;BME280;9907;42.676;26.348;2024-01-15T06:16:14;98376.94;;;-2.12;78.59
19526;BME280;9907;42.676;26.348;2024-01-15T06:18:47;98382.72;;;-2.05;78.05
19526;BME280;9907;42.676;26.348;2024-01-15T06:21:13;98378.13;;;-2.00;78.07
19526;BME280;9907;42.676;26.348;2024-01-15T06:23:49;98385.59;;;-1.92;77.20
19526;BME280;9907;42.676;26.348;2024-01-15T06:26:16;98378.31;;;-1.87;76.33
19526;BME280;9907;42.676;26.348;2024-01-15T06:28:43;98381.25;;;-1.76;76.64
19526;BME280;9907;42.676;26.348;2024-01-15T06:31:12;98377.56;;;-1.72;77.11
19526;BME280;9907;42.676;26.348;2024-01-15T06:33:47;98371.09;;;-1.65;76.16
19526;BME280;9907;42.676;26.348;2024-01-15T06:36:15;98371.53;;;-1.57;76.27
19526;BME280;9907;42.676;26.348;2024-01-15T06:38:49;98362.44;;;-1.50;76.03
19526;BME280;9907;42.676;26.348;2024-01-15T06:41:51;98357.94;;;-1.31;75.42
19526;BME280;9907;42.676;26.348;2024-01-15T06:44:17;98354.78;;;-1.05;75.42
19526;BME280;9907;42.676;26.348;2024-01-15T06:46:45;98349.72;;;-1.08;74.42
19526;BME280;9907;42.676;26.348;2024-01-15T06:49:11;98337.97;;;-1.01;72.75
19526;BME280;9907;42.676;26.348;2024-01-15T06:51:37;98348.97;;;-0.94;72.58
19526;BME280;9907;42.676;26.348;2024-01-15T06:54:03;98345.25;;;-0.90;72.60
19526;BME280;9907;42.676;26.348;2024-01-15T06:56:29;98353.78;;;-0.86;73.13
19526;BME280;9907;42.676;26.348;2024-01-15T06:58:54;98359.66;;;-0.81;72.11
19526;BME280;9907;42.676;26.348;2024-01-15T07:01:20;98363.63;;;-0.74;72.34
19526;BME280;9907;42.676;26.348;2024-01-15T07:03:46;98368.34;;;-0.65;71.12
19526;BME280;9907;42.676;26.348;2024-01-15T07:06:11;98364.94;;;-0.52;70.46
19526;BME280;9907;42.676;26.348;2024-01-15T07:08:40;98375.97;;;-0.45;70.05
19526;BME280;9907;42.676;26.348;2024-01-15T07:11:06;98382.56;;;-0.38;69.77
19526;BME280;9907;42.676;26.348;2024-01-15T07:13:33;98382.38;;;-0.19;70.81
19526;BME280;9907;42.676;26.348;2024-01-15T07:15:59;98383.78;;;0.02;69.89
19526;BME280;9907;42.676;26.348;2024-01-15T07:18:25;98391.81;;;0.15;70.16
19526;BME280;9907;42.676;26.348;2024-01-15T07:20:51;98379.91;;;0.23;67.97
19526;BME280;9907;42.676;26.348;2024-01-15T07:23:16;98376.66;;;0.34;67.51
19526;BME280;9907;42.676;26.348;2024-01-15T07:25:43;98384.47;;;0.49;66.89
19526;BME280;9907;42.676;26.348;2024-01-15T07:28:08;98378.97;;;0.68;66.15
19526;BME280;9907;42.676;26.348;2024-01-15T07:30:34;98364.44;;;0.77;66.58
19526;BME280;9907;42.676;26.348;2024-01-15T07:32:59;98369.22;;;0.98;65.22
19526;BME280;9907;42.676;26.348;2024-01-15T07:35:25;98364.59;;;1.16;65.21
19526;BME280;9907;42.676;26.348;2024-01-15T07:37:50;98376.22;;;1.40;64.23
19526;BME280;9907;42.676;26.348;2024-01-15T07:40:16;98360.91;;;1.47;63.40
19526;BME280;9907;42.676;26.348;2024-01-15T07:42:41;98352.03;;;1.62;62.94
19526;BME280;9907;42.676;26.348;2024-01-15T07:45:08;98349.34;;;1.76;62.21
19526;BME280;9907;42.676;26.348;2024-01-15T07:47:34;98351.19;;;1.88;61.62
19526;BME280;9907;42.676;26.348;2024-01-15T07:49:59;98353.22;;;1.98;61.60
19526;BME280;9907;42.676;26.348;2024-01-15T07:52:25;98357.75;;;1.95;64.64
19526;BME280;9907;42.676;26.348;2024-01-15T07:54:50;98350.50;;;2.12;68.36
19526;BME280;9907;42.676;26.348;2024-01-15T07:57:16;98350.47;;;2.38;67.78
19526;BME280;9907;42.676;26.348;2024-01-15T07:59:41;98355.53;;;2.54;63.09
19526;BME280;9907;42.676;26.348;2024-01-15T08:02:06;98349.41;;;2.66;61.25
19526;BME280;9907;42.676;26.348;2024-01-15T08:04:37;98354.06;;;2.75;60.77
19526;BME280;9907;42.676;26.348;2024-01-15T08:07:03;98348.19;;;2.84;62.73
19526;BME280;9907;42.676;26.348;2024-01-15T08:09:28;98349.09;;;2.96;62.84
19526;BME280;9907;42.676;26.348;2024-01-15T08:11:54;98349.22;;;2.94;63.56
19526;BME280;9907;42.676;26.348;2024-01-15T08:14:20;98358.06;;;3.06;64.36
19526;BME280;9907;42.676;26.348;2024-01-15T08:16:45;98359.75;;;3.07;65.44
19526;BME280;9907;42.676;26.348;2024-01-15T08:19:11;98356.16;;;3.21;65.09
19526;BME280;9907;42.676;26.348;2024-01-15T08:21:36;98349.78;;;3.36;64.35
19526;BME280;9907;42.676;26.348;2024-01-15T08:24:02;98345.41;;;3.48;64.84
19526;BME280;9907;42.676;26.348;2024-01-15T08:26:30;98350.81;;;3.46;64.90
19526;BME280;9907;42.676;26.348;2024-01-15T08:28:56;98350.28;;;3.54;64.25
19526;BME280;9907;42.676;26.348;2024-01-15T08:31:22;98345.63;;;3.44;64.23
19526;BME280;9907;42.676;26.348;2024-01-15T08:33:48;98352.44;;;3.36;64.71
19526;BME280;9907;42.676;26.348;2024-01-15T08:36:13;98357.34;;;3.53;65.66
19526;BME280;9907;42.676;26.348;2024-01-15T08:38:42;98347.38;;;3.69;65.43
19526;BME280;9907;42.676;26.348;2024-01-15T08:41:07;98343.84;;;3.45;65.85
19526;BME280;9907;42.676;26.348;2024-01-15T08:43:34;98347.25;;;3.95;65.63
19526;BME280;9907;42.676;26.348;2024-01-15T08:46:00;98335.91;;;4.05;65.13
19526;BME280;9907;42.676;26.348;2024-01-15T08:48:26;98327.63;;;4.10;64.09
19526;BME280;9907;42.676;26.348;2024-01-15T08:50:53;98320.19;;;4.15;62.87
19526;BME280;9907;42.676;26.348;2024-01-15T08:53:18;98302.84;;;4.34;61.76
19526;BME280;9907;42.676;26.348;2024-01-15T08:55:44;98308.44;;;4.19;62.14
19526;BME280;9907;42.676;26.348;2024-01-15T08:58:09;98295.66;;;4.02;61.39
19526;BME280;9907;42.676;26.348;2024-01-15T09:00:35;98296.44;;;4.26;61.89
19526;BME280;9907;42.676;26.348;2024-01-15T09:03:02;98295.75;;;4.35;61.50
19526;BME280;9907;42.676;26.348;2024-01-15T09:05:28;98295.16;;;4.43;61.00
19526;BME280;9907;42.676;26.348;2024-01-15T09:07:54;98291.78;;;4.40;60.50
19526;BME280;9907;42.676;26.348;2024-01-15T09:10:20;98291.56;;;4.66;60.09
19526;BME280;9907;42.676;26.348;2024-01-15T09:12:46;98290.50;;;4.68;59.31
19526;BME280;9907;42.676;26.348;2024-01-15T09:15:12;98286.28;;;4.77;59.59
19526;BME280;9907;42.676;26.348;2024-01-15T09:17:38;98289.19;;;4.74;58.66
19526;BME280;9907;42.676;26.348;2024-01-15T09:20:03;98277.16;;;4.70;59.41
19526;BME280;9907;42.676;26.348;2024-01-15T09:22:32;98273.44;;;4.83;59.05
19526;BME280;9907;42.676;26.348;2024-01-15T09:24:58;98266.72;;;4.79;58.86
19526;BME280;9907;42.676;26.348;2024-01-15T09:27:24;98266.81;;;4.89;59.05
19526;BME280;9907;42.676;26.348;2024-01-15T09:29:51;98258.53;;;4.94;58.62
19526;BME280;9907;42.676;26.348;2024-01-15T09:32:21;98259.72;;;5.01;58.04
19526;BME280;9907;42.676;26.348;2024-01-15T09:34:46;98252.97;;;4.97;58.14
19526;BME280;9907;42.676;26.348;2024-01-15T09:37:14;98242.41;;;4.97;58.12
19526;BME280;9907;42.676;26.348;2024-01-15T09:39:39;98239.75;;;4.85;58.16
19526;BME280;9907;42.676;26.348;2024-01-15T09:42:05;98224.47;;;4.89;58.37
19526;BME280;9907;42.676;26.348;2024-01-15T09:44:31;98228.56;;;4.93;58.16
19526;BME280;9907;42.676;26.348;2024-01-15T09:47:00;98224.34;;;5.02;58.51
19526;BME280;9907;42.676;26.348;2024-01-15T09:49:26;98215.81;;;5.09;57.82
19526;BME280;9907;42.676;26.348;2024-01-15T09:51:51;98206.06;;;5.10;57.55
19526;BME280;9907;42.676;26.348;2024-01-15T09:54:17;98210.84;;;5.16;57.53
19526;BME280;9907;42.676;26.348;2024-01-15T09:56:45;98198.09;;;5.21;57.92
19526;BME280;9907;42.676;26.348;2024-01-15T09:59:18;98194.69;;;5.30;56.92
19526;BME280;9907;42.676;26.348;2024-01-15T10:01:44;98189.50;;;5.28;57.25
19526;BME280;9907;42.676;26.348;2024-01-15T10:04:13;98192.50;;;5.35;56.67
19526;BME280;9907;42.676;26.348;2024-01-15T10:06:44;98183.03;;;5.21;56.29
19526;BME280;9907;42.676;26.348;2024-01-15T10:09:15;98186.25;;;5.25;56.37
19526;BME280;9907;42.676;26.348;2024-01-15T10:11:42;98183.38;;;5.28;55.11
19526;BME280;9907;42.676;26.348;2024-01-15T10:14:24;98180.16;;;5.24;55.07
19526;BME280;9907;42.676;26.348;2024-01-15T10:16:49;98180.97;;;5.25;54.77
19526;BME280;9907;42.676;26.348;2024-01-15T10:19:16;98181.94;;;5.24;54.17
19526;BME280;9907;42.676;26.348;2024-01-15T10:21:41;98173.44;;;5.09;54.34
19526;BME280;9907;42.676;26.348;2024-01-15T10:24:11;98173.44;;;5.09;53.89
19526;BME280;9907;42.676;26.348;2024-01-15T10:26:37;98177.91;;;5.09;54.85
19526;BME280;9907;42.676;26.348;2024-01-15T10:29:03;98166.69;;;5.16;54.87
19526;BME280;9907;42.676;26.348;2024-01-15T10:31:49;98177.13;;;5.18;55.73
19526;BME280;9907;42.676;26.348;2024-01-15T10:34:19;98164.44;;;5.01;55.44
19526;BME280;9907;42.676;26.348;2024-01-15T10:36:45;98160.84;;;4.90;56.40
19526;BME280;9907;42.676;26.348;2024-01-15T10:39:13;98151.22;;;4.89;56.42
19526;BME280;9907;42.676;26.348;2024-01-15T10:41:42;98142.44;;;4.89;56.41
19526;BME280;9907;42.676;26.348;2024-01-15T10:44:09;98148.84;;;4.75;57.12
19526;BME280;9907;42.676;26.348;2024-01-15T10:46:36;98146.66;;;4.80;56.17
19526;BME280;9907;42.676;26.348;2024-01-15T10:49:03;98131.16;;;4.87;56.40
19526;BME280;9907;42.676;26.348;2024-01-15T10:51:32;98128.59;;;4.97;55.92
19526;BME280;9907;42.676;26.348;2024-01-15T10:54:00;98126.50;;;5.11;56.35
19526;BME280;9907;42.676;26.348;2024-01-15T10:56:27;98122.06;;;5.12;56.12
19526;BME280;9907;42.676;26.348;2024-01-15T10:58:55;98108.22;;;5.08;56.32
19526;BME280;9907;42.676;26.348;2024-01-15T11:01:22;98099.22;;;5.00;56.30
19526;BME280;9907;42.676;26.348;2024-01-15T11:03:48;98090.22;;;5.02;55.85
19526;BME280;9907;42.676;26.348;2024-01-15T11:06:18;98091.97;;;5.13;55.45
19526;BME280;9907;42.676;26.348;2024-01-15T11:08:48;98098.31;;;5.21;54.99
19526;BME280;9907;42.676;26.348;2024-01-15T11:11:16;98090.25;;;5.23;54.62
19526;BME280;9907;42.676;26.348;2024-01-15T11:13:42;98093.59;;;5.25;54.90
19526;BME280;9907;42.676;26.348;2024-01-15T11:16:11;98092.69;;;5.15;55.65
19526;BME280;9907;42.676;26.348;2024-01-15T11:18:41;98098.56;;;5.18;56.66
19526;BME280;9907;42.676;26.348;2024-01-15T11:23:53;98097.72;;;5.18;56.03
19526;BME280;9907;42.676;26.348;2024-01-15T11:26:54;98095.53;;;5.23;56.89
19526;BME280;9907;42.676;26.348;2024-01-15T11:29:36;98091.84;;;5.14;56.57
19526;BME280;9907;42.676;26.348;2024-01-15T11:34:51;98080.63;;;5.22;57.73
19526;BME280;9907;42.676;26.348;2024-01-15T11:37:19;98072.66;;;5.22;57.18
19526;BME280;9907;42.676;26.348;2024-01-15T11:39:51;98072.41;;;5.25;57.54
19526;BME280;9907;42.676;26.348;2024-01-15T11:42:18;98069.75;;;5.25;58.68
19526;BME280;9907;42.676;26.348;2024-01-15T11:44:44;98066.94;;;5.37;58.28
19526;BME280;9907;42.676;26.348;2024-01-15T11:47:11;98065.34;;;5.46;57.66
19526;BME280;9907;42.676;26.348;2024-01-15T11:50:00;98059.78;;;5.49;57.93
19526;BME280;9907;42.676;26.348;2024-01-15T11:52:36;98048.06;;;5.52;58.02
19526;BME280;9907;42.676;26.348;2024-01-15T11:55:07;98049.19;;;5.49;57.64
19526;BME280;9907;42.676;26.348;2024-01-15T11:57:50;98061.91;;;5.34;58.68
19526;BME280;9907;42.676;26.348;2024-01-15T12:00:16;98060.94;;;5.35;58.47
19526;BME280;9907;42.676;26.348;2024-01-15T12:02:44;98074.50;;;5.42;57.70
19526;BME280;9907;42.676;26.348;2024-01-15T12:05:10;98061.69;;;5.47;57.73
19526;BME280;9907;42.676;26.348;2024-01-15T12:07:40;98063.78;;;5.64;57.79
19526;BME280;9907;42.676;26.348;2024-01-15T12:12:58;98063.53;;;5.67;57.14
19526;BME280;9907;42.676;26.348;2024-01-15T12:15:25;98060.88;;;5.67;56.78
19526;BME280;9907;42.676;26.348;2024-01-15T12:17:51;98052.91;;;5.67;56.44
19526;BME280;9907;42.676;26.348;2024-01-15T12:20:17;98053.38;;;5.72;57.07
19526;BME280;9907;42.676;26.348;2024-01-15T12:22:43;98045.25;;;5.64;56.48
19526;BME280;9907;42.676;26.348;2024-01-15T12:25:10;98033.50;;;5.57;55.91
19526;BME280;9907;42.676;26.348;2024-01-15T12:27:36;98039.47;;;5.59;55.97
19526;BME280;9907;42.676;26.348;2024-01-15T12:30:02;98039.22;;;5.62;56.25
19526;BME280;9907;42.676;26.348;2024-01-15T12:32:28;98039.94;;;5.64;55.89
19526;BME280;9907;42.676;26.348;2024-01-15T12:34:55;98035.00;;;5.80;56.25
19526;BME280;9907;42.676;26.348;2024-01-15T12:37:20;98030.53;;;5.81;55.22
19526;BME280;9907;42.676;26.348;2024-01-15T12:39:47;98031.09;;;5.84;55.22
19526;BME280;9907;42.676;26.348;2024-01-15T12:42:16;98024.75;;;5.87;54.50
19526;BME280;9907;42.676;26.348;2024-01-15T12:44:47;98021.00;;;5.90;54.99
19526;BME280;9907;42.676;26.348;2024-01-15T12:47:13;98013.50;;;5.95;55.10
19526;BME280;9907;42.676;26.348;2024-01-15T12:49:39;98011.09;;;5.92;54.52
19526;BME280;9907;42.676;26.348;2024-01-15T12:52:09;98022.41;;;5.94;54.46
19526;BME280;9907;42.676;26.348;2024-01-15T12:54:35;98029.50;;;5.93;54.08
19526;BME280;9907;42.676;26.348;2024-01-15T12:57:02;98034.69;;;5.95;53.96
19526;BME280;9907;42.676;26.348;2024-01-15T12:59:28;98024.66;;;5.98;54.19
19526;BME280;9907;42.676;26.348;2024-01-15T13:01:54;98032.47;;;6.00;53.98
19526;BME280;9907;42.676;26.348;2024-01-15T13:04:24;98037.50;;;6.03;54.72
19526;BME280;9907;42.676;26.348;2024-01-15T13:06:52;98031.22;;;6.04;54.01
19526;BME280;9907;42.676;26.348;2024-01-15T13:09:21;98023.44;;;6.02;53.99
19526;BME280;9907;42.676;26.348;2024-01-15T13:11:46;98016.84;;;6.06;54.55
19526;BME280;9907;42.676;26.348;2024-01-15T13:14:12;98010.75;;;6.06;53.56
19526;BME280;9907;42.676;26.348;2024-01-15T13:16:41;98010.75;;;6.06;53.45
19526;BME280;9907;42.676;26.348;2024-01-15T13:19:08;98002.78;;;6.06;53.64
19526;BME280;9907;42.676;26.348;2024-01-15T13:21:34;98004.59;;;6.05;53.44
19526;BME280;9907;42.676;26.348;2024-01-15T13:23:59;97995.53;;;6.08;53.92
19526;BME280;9907;42.676;26.348;2024-01-15T13:26:25;97987.56;;;6.08;54.20
19526;BME280;9907;42.676;26.348;2024-01-15T13:28:50;98002.34;;;6.01;54.49
19526;BME280;9907;42.676;26.348;2024-01-15T13:31:22;97998.97;;;5.99;54.20
19526;BME280;9907;42.676;26.348;2024-01-15T13:33:47;98000.25;;;5.95;54.52
19526;BME280;9907;42.676;26.348;2024-01-15T13:36:13;97994.50;;;5.90;54.81
19526;BME280;9907;42.676;26.348;2024-01-15T13:38:38;97988.22;;;5.91;54.29
19526;BME280;9907;42.676;26.348;2024-01-15T13:41:04;97993.09;;;5.95;54.33
19526;BME280;9907;42.676;26.348;2024-01-15T13:43:31;97992.00;;;5.98;52.91
19526;BME280;9907;42.676;26.348;2024-01-15T13:45:59;97982.56;;;6.05;53.13
19526;BME280;9907;42.676;26.348;2024-01-15T13:48:24;97978.94;;;6.06;52.86
19526;BME280;9907;42.676;26.348;2024-01-15T13:50:50;97979.50;;;6.09;52.67
19526;BME280;9907;42.676;26.348;2024-01-15T13:53:16;97970.56;;;6.10;52.21